Time;durP1;ratioP1;P1;durP2;ratioP2;P2;SDS_P1;SDS_P2;PMS_P1;PMS_P2;Temp;Humidity;BMP_temperature;BMP_pressure;BME280_temperature;BME280_humidity;BME280_pressure;Samples;Min_cycle;Max_cycle;Signal;HPM_P1;HPM_P2
2023/10/28 00:00:54;;;;;;;2.07;1.63;;;16.70;99.90;;;;;;5016391;28;20200;-88
2023/10/28 00:03:20;;;;;;;2.67;1.70;;;16.70;99.90;;;;;;5015217;28;20182;-88
2023/10/28 00:05:46;;;;;;;3.47;1.90;;;16.70;99.90;;;;;;5022890;28;20210;-88
2023/10/28 00:08:12;;;;;;;3.53;1.90;;;16.70;99.90;;;;;;5015053;28;20176;-89
2023/10/28 00:10:40;;;;;;;3.93;1.70;;;16.70;99.90;;;;;;5005694;28;20173;-88
2023/10/28 00:13:07;;;;;;;2.20;1.70;;;16.70;99.90;;;;;;5017039;28;20561;-89
2023/10/28 00:15:32;;;;;;;3.17;1.80;;;16.70;99.90;;;;;;5003347;28;20214;-87
2023/10/28 00:17:58;;;;;;;2.33;1.80;;;16.70;99.90;;;;;;5017105;28;20284;-87
2023/10/28 00:20:24;;;;;;;3.17;1.60;;;16.70;99.90;;;;;;5011028;28;20177;-88
2023/10/28 00:22:53;;;;;;;2.33;1.70;;;16.70;99.90;;;;;;4997180;28;20185;-87
2023/10/28 00:25:22;;;;;;;2.27;1.60;;;16.70;99.90;;;;;;5007032;28;20207;-88
2023/10/28 00:27:48;;;;;;;2.23;1.70;;;16.70;99.90;;;;;;4997613;28;20177;-87
2023/10/28 00:30:14;;;;;;;2.47;1.63;;;16.70;99.90;;;;;;5007634;28;20367;-87
2023/10/28 00:32:42;;;;;;;2.30;1.63;;;16.70;99.90;;;;;;5000803;28;20200;-88
2023/10/28 00:35:08;;;;;;;2.30;1.60;;;16.70;99.90;;;;;;5004145;28;20199;-88
2023/10/28 00:37:37;;;;;;;2.83;1.53;;;16.60;99.90;;;;;;5003317;28;20178;-87
2023/10/28 00:40:07;;;;;;;2.63;1.60;;;16.70;99.90;;;;;;5000810;28;20605;-87
2023/10/28 00:42:36;;;;;;;2.23;1.70;;;16.70;99.90;;;;;;5020743;28;20272;-87
2023/10/28 00:45:04;;;;;;;2.47;1.70;;;16.60;99.90;;;;;;4998187;28;20204;-87
2023/10/28 00:47:31;;;;;;;2.63;1.50;;;16.70;99.90;;;;;;5004167;28;20178;-88
2023/10/28 00:49:58;;;;;;;2.30;1.60;;;16.60;99.90;;;;;;4993931;28;20191;-87
2023/10/28 00:52:24;;;;;;;1.90;1.57;;;16.60;99.90;;;;;;5003454;28;20373;-87
2023/10/28 00:54:51;;;;;;;2.13;1.70;;;16.60;99.90;;;;;;4999321;28;20186;-87
2023/10/28 00:57:17;;;;;;;2.07;1.60;;;16.60;99.90;;;;;;5024910;28;20182;-87
2023/10/28 00:59:44;;;;;;;2.00;1.63;;;16.60;99.90;;;;;;4998428;28;20184;-87
2023/10/28 01:02:14;;;;;;;2.53;1.47;;;16.60;99.90;;;;;;5006156;28;20180;-87
2023/10/28 01:04:40;;;;;;;2.50;1.60;;;16.60;99.90;;;;;;5018851;28;20215;-87
2023/10/28 01:07:08;;;;;;;1.87;1.60;;;16.60;99.90;;;;;;5005352;28;20189;-87
2023/10/28 01:09:47;;;;;;;2.37;1.40;;;16.60;99.90;;;;;;5035707;28;20167;-87
2023/10/28 01:12:13;;;;;;;3.33;1.80;;;16.60;99.90;;;;;;5005257;28;20185;-88
2023/10/28 01:14:40;;;;;;;2.20;1.50;;;16.60;99.90;;;;;;5017823;28;20268;-87
2023/10/28 01:17:06;;;;;;;2.37;1.43;;;16.60;99.90;;;;;;5007259;28;20244;-88
2023/10/28 01:19:34;;;;;;;1.90;1.50;;;16.60;99.90;;;;;;5016053;28;20189;-87
2023/10/28 01:22:00;;;;;;;2.83;1.60;;;16.60;99.90;;;;;;5013095;28;20270;-88
2023/10/28 01:24:28;;;;;;;2.07;1.50;;;16.60;99.90;;;;;;5001768;28;20236;-88
2023/10/28 01:26:54;;;;;;;2.57;1.50;;;16.60;99.90;;;;;;5021134;28;20176;-88
2023/10/28 01:29:20;;;;;;;1.90;1.60;;;16.60;99.90;;;;;;5002748;28;20205;-88
2023/10/28 01:31:47;;;;;;;2.20;1.47;;;16.60;99.90;;;;;;5017476;28;20222;-88
2023/10/28 01:34:13;;;;;;;2.50;1.60;;;16.60;99.90;;;;;;5006451;28;20196;-88
2023/10/28 01:36:38;;;;;;;2.63;1.50;;;16.60;99.90;;;;;;5003494;28;20177;-88
2023/10/28 01:39:04;;;;;;;1.90;1.33;;;16.60;99.90;;;;;;5025405;28;20168;-88
2023/10/28 01:41:31;;;;;;;2.53;1.50;;;16.60;99.90;;;;;;5017924;28;20512;-88
2023/10/28 01:43:57;;;;;;;2.50;1.30;;;16.60;99.90;;;;;;5020526;28;20197;-88
2023/10/28 01:46:22;;;;;;;2.43;1.67;;;16.60;99.90;;;;;;5000289;28;20220;-88
2023/10/28 01:48:48;;;;;;;2.27;1.70;;;16.60;99.90;;;;;;5007712;28;20479;-88
2023/10/28 01:51:14;;;;;;;1.77;1.40;;;16.60;99.90;;;;;;5035074;28;20604;-88
2023/10/28 01:53:39;;;;;;;1.70;1.40;;;16.60;99.90;;;;;;5000508;28;20622;-88
2023/10/28 01:56:05;;;;;;;1.63;1.43;;;16.60;99.90;;;;;;5017197;28;20187;-88
2023/10/28 01:58:32;;;;;;;1.67;1.50;;;16.60;99.90;;;;;;5011337;28;20185;-88
2023/10/28 02:00:58;;;;;;;1.90;1.50;;;16.60;99.90;;;;;;5017311;28;20187;-88
2023/10/28 02:03:24;;;;;;;1.63;1.27;;;16.60;99.90;;;;;;5008974;28;20183;-89
2023/10/28 02:05:51;;;;;;;1.33;1.20;;;16.60;99.90;;;;;;5015061;28;20215;-89
2023/10/28 02:08:17;;;;;;;2.43;1.50;;;16.60;99.90;;;;;;5013580;28;20182;-89
2023/10/28 02:10:42;;;;;;;2.27;1.57;;;16.60;99.90;;;;;;5013139;28;20263;-88
2023/10/28 02:13:09;;;;;;;2.27;1.53;;;16.60;99.90;;;;;;5014538;28;20199;-89
2023/10/28 02:15:35;;;;;;;2.23;1.40;;;16.60;99.90;;;;;;5012277;28;20194;-88
2023/10/28 02:18:00;;;;;;;1.87;1.37;;;16.60;99.90;;;;;;5019039;28;20400;-89
2023/10/28 02:20:28;;;;;;;2.93;1.50;;;16.60;99.90;;;;;;5008019;28;20470;-89
2023/10/28 02:22:53;;;;;;;1.93;1.40;;;16.60;99.90;;;;;;5018452;28;20216;-88
2023/10/28 02:25:19;;;;;;;1.93;1.30;;;16.60;99.90;;;;;;5007660;28;20232;-89
2023/10/28 02:27:46;;;;;;;1.73;1.40;;;16.60;99.90;;;;;;5018944;28;20177;-89
2023/10/28 02:30:13;;;;;;;1.93;1.50;;;16.60;99.90;;;;;;5006397;28;20444;-89
2023/10/28 02:32:39;;;;;;;2.93;1.30;;;16.60;99.90;;;;;;5017803;28;20277;-89
2023/10/28 02:35:05;;;;;;;2.27;1.50;;;16.60;99.90;;;;;;5012980;28;20243;-89
2023/10/28 02:37:31;;;;;;;1.83;1.40;;;16.60;99.90;;;;;;5034697;28;20226;-89
2023/10/28 02:39:56;;;;;;;1.97;1.53;;;16.60;99.90;;;;;;5006360;28;20437;-89
2023/10/28 02:42:23;;;;;;;2.23;1.30;;;16.60;99.90;;;;;;5017331;28;20184;-89
2023/10/28 02:44:50;;;;;;;1.87;1.27;;;16.60;99.90;;;;;;5008725;28;20203;-89
2023/10/28 02:47:16;;;;;;;1.43;1.13;;;16.60;99.90;;;;;;5015188;28;20176;-89
2023/10/28 02:49:42;;;;;;;2.17;1.40;;;16.60;99.90;;;;;;5011969;28;20218;-89
2023/10/28 02:52:08;;;;;;;1.23;1.10;;;16.60;99.90;;;;;;5013039;28;20222;-89
2023/10/28 02:54:37;;;;;;;2.40;1.47;;;16.60;99.90;;;;;;5014943;28;20188;-89
2023/10/28 02:57:03;;;;;;;1.33;1.23;;;16.60;99.90;;;;;;5011124;28;20184;-89
2023/10/28 02:59:29;;;;;;;2.03;1.50;;;16.60;99.90;;;;;;5017269;28;20242;-88
2023/10/28 03:01:55;;;;;;;1.80;1.27;;;16.50;99.90;;;;;;5008434;28;20363;-89
2023/10/28 03:04:21;;;;;;;2.43;1.20;;;16.60;99.90;;;;;;5015885;28;20179;-89
2023/10/28 03:06:47;;;;;;;1.53;1.40;;;16.60;99.90;;;;;;5009107;28;20187;-89
2023/10/28 03:09:13;;;;;;;1.50;1.37;;;16.60;99.90;;;;;;4998673;28;20177;-89
2023/10/28 03:11:39;;;;;;;1.83;1.40;;;16.60;99.90;;;;;;5017774;28;20267;-89
2023/10/28 03:14:05;;;;;;;1.70;1.37;;;16.60;99.90;;;;;;5015826;28;20261;-89
2023/10/28 03:16:32;;;;;;;1.67;1.50;;;16.60;99.90;;;;;;5021351;28;20311;-88
2023/10/28 03:18:58;;;;;;;1.57;1.20;;;16.60;99.90;;;;;;5016495;28;20179;-88
2023/10/28 03:21:24;;;;;;;2.37;1.30;;;16.60;99.90;;;;;;5014573;28;20215;-88
2023/10/28 03:23:50;;;;;;;1.33;1.23;;;16.50;99.90;;;;;;5012881;28;20172;-88
2023/10/28 03:26:16;;;;;;;1.53;1.30;;;16.60;99.90;;;;;;5004958;28;20200;-89
2023/10/28 03:28:41;;;;;;;1.43;1.33;;;16.60;99.90;;;;;;5015121;28;20173;-87
2023/10/28 03:31:11;;;;;;;1.57;1.20;;;16.50;99.90;;;;;;4997383;28;20199;-88
2023/10/28 03:33:38;;;;;;;1.60;1.40;;;16.60;99.90;;;;;;5011064;28;20438;-88
2023/10/28 03:36:05;;;;;;;1.73;1.40;;;16.60;99.90;;;;;;5010699;28;20549;-88
2023/10/28 03:38:33;;;;;;;1.50;1.40;;;16.60;99.90;;;;;;5002856;28;20326;-88
2023/10/28 03:41:05;;;;;;;1.27;1.17;;;16.60;99.90;;;;;;4998640;28;20195;-88
2023/10/28 03:43:31;;;;;;;1.67;1.30;;;16.60;99.90;;;;;;5004017;28;20177;-87
2023/10/28 03:45:57;;;;;;;2.33;1.60;;;16.60;99.90;;;;;;4998529;28;20208;-88
2023/10/28 03:48:23;;;;;;;1.67;1.30;;;16.60;99.90;;;;;;5005067;28;20175;-87
2023/10/28 03:51:01;;;;;;;1.40;1.30;;;16.60;99.90;;;;;;5015263;28;20165;-87
2023/10/28 03:53:27;;;;;;;2.07;1.30;;;16.50;99.90;;;;;;5008429;28;20608;-87
2023/10/28 03:55:53;;;;;;;1.53;1.40;;;16.50;99.90;;;;;;4997495;28;20304;-88
2023/10/28 03:58:19;;;;;;;1.20;1.10;;;16.50;99.90;;;;;;5008471;28;20192;-88
2023/10/28 04:00:48;;;;;;;1.37;1.23;;;16.50;99.90;;;;;;5013980;28;20191;-88
2023/10/28 04:03:14;;;;;;;1.57;1.30;;;16.50;99.90;;;;;;5009576;28;20330;-88
2023/10/28 04:05:39;;;;;;;1.30;1.20;;;16.50;99.90;;;;;;4998000;28;20315;-88
2023/10/28 04:08:05;;;;;;;2.33;1.50;;;16.50;99.90;;;;;;5003573;28;20191;-88
2023/10/28 04:10:31;;;;;;;1.90;1.33;;;16.50;99.90;;;;;;5017148;28;20560;-88
2023/10/28 04:12:56;;;;;;;1.60;1.40;;;16.50;99.90;;;;;;5012925;28;20267;-88
2023/10/28 04:15:22;;;;;;;1.30;1.20;;;16.50;99.90;;;;;;4998323;28;20401;-87
2023/10/28 04:17:48;;;;;;;1.40;1.20;;;16.50;99.90;;;;;;5005396;28;20200;-87
2023/10/28 04:20:14;;;;;;;1.30;1.10;;;16.50;99.90;;;;;;5000769;28;20173;-87
2023/10/28 04:22:41;;;;;;;1.50;1.30;;;16.50;99.90;;;;;;5003015;28;20184;-88
2023/10/28 04:25:08;;;;;;;1.60;1.30;;;16.50;99.90;;;;;;5004396;28;20288;-87
2023/10/28 04:27:40;;;;;;;1.90;1.40;;;16.50;99.90;;;;;;5000197;28;20192;-87
2023/10/28 04:30:10;;;;;;;1.30;1.20;;;16.50;99.90;;;;;;5012057;28;20277;-87
2023/10/28 04:32:37;;;;;;;1.30;1.20;;;16.50;99.90;;;;;;5016460;28;20166;-87
2023/10/28 04:35:02;;;;;;;1.70;1.33;;;16.50;99.90;;;;;;5010433;28;20220;-87
2023/10/28 04:37:28;;;;;;;1.40;1.20;;;16.50;99.90;;;;;;5001248;28;20169;-88
2023/10/28 04:39:55;;;;;;;1.73;1.30;;;16.50;99.90;;;;;;5011352;28;20188;-87
2023/10/28 04:42:21;;;;;;;1.80;1.07;;;16.50;99.90;;;;;;5002216;28;20188;-87
2023/10/28 04:44:46;;;;;;;1.13;1.03;;;16.50;99.90;;;;;;5010812;28;20203;-87
2023/10/28 04:47:12;;;;;;;1.60;1.20;;;16.50;99.90;;;;;;5000461;28;20291;-87
2023/10/28 04:49:39;;;;;;;1.90;1.30;;;16.50;99.90;;;;;;5005456;28;20170;-87
2023/10/28 04:52:08;;;;;;;1.30;1.17;;;16.50;99.90;;;;;;5019432;28;20457;-87
2023/10/28 04:54:34;;;;;;;1.13;1.03;;;16.50;99.90;;;;;;5008092;28;20238;-88
2023/10/28 04:57:00;;;;;;;1.20;1.10;;;16.50;99.90;;;;;;5003435;28;20184;-88
2023/10/28 04:59:28;;;;;;;1.50;1.20;;;16.50;99.90;;;;;;5009639;28;20173;-88
2023/10/28 05:01:54;;;;;;;1.30;1.10;;;16.50;99.90;;;;;;5017777;28;20222;-88
2023/10/28 05:04:20;;;;;;;1.40;1.20;;;16.50;99.90;;;;;;5025748;28;20201;-88
2023/10/28 05:06:46;;;;;;;1.40;1.20;;;16.50;99.90;;;;;;5014390;28;20231;-88
2023/10/28 05:09:15;;;;;;;1.53;1.10;;;16.50;99.90;;;;;;5013898;28;20176;-88
2023/10/28 05:11:41;;;;;;;1.27;1.03;;;16.50;99.90;;;;;;5012797;28;20169;-88
2023/10/28 05:14:09;;;;;;;1.80;1.17;;;16.50;99.90;;;;;;5015548;28;20169;-88
2023/10/28 05:16:35;;;;;;;1.40;1.20;;;16.40;99.90;;;;;;5010981;28;20188;-88
2023/10/28 05:19:01;;;;;;;1.30;1.20;;;16.50;99.90;;;;;;5017961;28;20172;-88
2023/10/28 05:21:27;;;;;;;1.33;1.20;;;16.50;99.90;;;;;;5008756;28;20188;-88
2023/10/28 05:23:52;;;;;;;1.30;1.20;;;16.50;99.90;;;;;;5018466;28;20173;-88
2023/10/28 05:26:18;;;;;;;1.50;1.10;;;16.50;99.90;;;;;;5006693;28;20205;-88
2023/10/28 05:28:46;;;;;;;1.10;1.00;;;16.50;99.90;;;;;;5018837;28;20208;-88
2023/10/28 05:31:14;;;;;;;1.23;1.13;;;16.40;99.90;;;;;;5008162;28;20177;-88
2023/10/28 05:33:39;;;;;;;2.30;1.30;;;16.40;99.90;;;;;;5019299;28;20554;-88
2023/10/28 05:36:05;;;;;;;1.23;1.07;;;16.50;99.90;;;;;;5015365;28;20252;-89
2023/10/28 05:38:31;;;;;;;1.33;1.10;;;16.40;99.90;;;;;;4999544;28;20567;-89
2023/10/28 05:40:57;;;;;;;1.17;1.07;;;16.40;99.90;;;;;;5003430;28;20173;-89
2023/10/28 05:43:23;;;;;;;1.90;1.20;;;16.40;99.90;;;;;;5017836;28;20444;-89
2023/10/28 05:45:48;;;;;;;1.30;1.20;;;16.40;99.90;;;;;;5008801;28;20195;-88
2023/10/28 05:48:14;;;;;;;1.40;1.30;;;16.40;99.90;;;;;;5015727;28;20182;-88
2023/10/28 05:50:40;;;;;;;1.23;1.13;;;16.40;99.90;;;;;;5033348;28;20456;-89
2023/10/28 05:53:06;;;;;;;1.40;1.10;;;16.40;99.90;;;;;;5006611;28;20185;-88
2023/10/28 05:55:31;;;;;;;1.10;1.00;;;16.40;99.90;;;;;;5011040;28;20183;-89
2023/10/28 05:57:57;;;;;;;1.37;1.10;;;16.40;99.90;;;;;;5007829;28;20186;-89
2023/10/28 06:00:24;;;;;;;1.10;1.00;;;16.40;99.90;;;;;;5000180;28;20476;-89
2023/10/28 06:02:50;;;;;;;1.20;1.00;;;16.40;99.90;;;;;;5024279;28;20494;-88
2023/10/28 06:05:16;;;;;;;1.10;1.00;;;16.40;99.90;;;;;;5017109;28;20194;-88
2023/10/28 06:07:47;;;;;;;0.93;0.93;;;16.40;99.90;;;;;;5007765;28;20173;-89
2023/10/28 06:10:14;;;;;;;1.30;1.20;;;16.40;99.90;;;;;;5016771;28;20616;-88
2023/10/28 06:12:40;;;;;;;1.00;0.90;;;16.40;99.90;;;;;;5004759;28;20695;-89
2023/10/28 06:15:06;;;;;;;1.73;1.10;;;16.40;99.90;;;;;;5018208;28;20176;-89
2023/10/28 06:17:31;;;;;;;1.10;1.00;;;16.40;99.90;;;;;;5010730;28;20176;-89
2023/10/28 06:19:59;;;;;;;1.37;1.07;;;16.40;99.90;;;;;;5016649;28;20173;-89
2023/10/28 06:22:24;;;;;;;1.10;1.00;;;16.40;99.90;;;;;;5009803;28;20232;-89
2023/10/28 06:24:50;;;;;;;1.47;1.37;;;16.40;99.90;;;;;;4996864;28;20205;-89
2023/10/28 06:27:15;;;;;;;1.23;1.13;;;16.40;99.90;;;;;;5007033;28;20169;-89
2023/10/28 06:29:43;;;;;;;0.97;0.97;;;16.40;99.90;;;;;;5000793;28;20174;-90
2023/10/28 06:32:09;;;;;;;1.20;1.10;;;16.40;99.90;;;;;;5003168;28;20187;-88
2023/10/28 06:34:35;;;;;;;1.60;1.03;;;16.40;99.90;;;;;;5001723;28;20226;-87
2023/10/28 06:37:01;;;;;;;1.63;1.30;;;16.40;99.90;;;;;;5000883;28;20171;-88
2023/10/28 06:39:28;;;;;;;1.23;0.90;;;16.40;99.90;;;;;;5003966;28;20180;-87
2023/10/28 06:41:53;;;;;;;1.80;1.10;;;16.40;99.90;;;;;;4998698;28;20196;-88
2023/10/28 06:44:20;;;;;;;1.20;1.10;;;16.40;99.90;;;;;;5003926;28;20181;-88
2023/10/28 06:46:45;;;;;;;1.10;1.00;;;16.40;99.90;;;;;;4995038;28;20176;-88
2023/10/28 06:49:12;;;;;;;1.13;1.03;;;16.40;99.90;;;;;;5005886;28;20242;-88
2023/10/28 06:51:37;;;;;;;1.53;1.20;;;16.40;99.90;;;;;;4996003;28;20183;-88
2023/10/28 06:54:04;;;;;;;0.97;0.90;;;16.40;99.90;;;;;;5000759;28;20180;-87
2023/10/28 06:56:30;;;;;;;1.40;1.03;;;16.40;99.90;;;;;;5031267;28;20175;-87
2023/10/28 06:58:56;;;;;;;1.30;1.10;;;16.40;99.90;;;;;;5006616;28;20176;-88
2023/10/28 07:01:22;;;;;;;1.53;1.10;;;16.40;99.90;;;;;;5012226;28;20243;-88
2023/10/28 07:03:49;;;;;;;1.20;1.10;;;16.40;99.90;;;;;;5006258;28;20180;-88
2023/10/28 07:06:15;;;;;;;1.70;1.10;;;16.40;99.90;;;;;;4993454;28;20205;-88
2023/10/28 07:08:42;;;;;;;1.20;1.10;;;16.40;99.90;;;;;;4998691;28;20253;-88
2023/10/28 07:11:07;;;;;;;1.10;1.00;;;16.40;99.90;;;;;;5012486;28;20184;-88
2023/10/28 07:13:33;;;;;;;1.17;1.00;;;16.40;99.90;;;;;;5008446;28;20177;-87
2023/10/28 07:16:03;;;;;;;1.37;1.00;;;16.40;99.90;;;;;;4998860;28;20298;-88
2023/10/28 07:18:30;;;;;;;1.20;1.10;;;16.40;99.90;;;;;;4999296;28;20172;-87
2023/10/28 07:20:57;;;;;;;1.73;1.20;;;16.40;99.90;;;;;;4998512;28;20181;-88
2023/10/28 07:23:26;;;;;;;1.20;1.10;;;16.40;99.90;;;;;;4995911;28;20178;-88
2023/10/28 07:25:56;;;;;;;1.10;0.90;;;16.40;99.90;;;;;;5001577;28;20236;-89
2023/10/28 07:28:22;;;;;;;1.10;1.00;;;16.40;99.90;;;;;;4997493;28;20447;-88
2023/10/28 07:30:51;;;;;;;1.13;1.03;;;16.40;99.90;;;;;;5019155;28;20170;-88
2023/10/28 07:33:20;;;;;;;0.90;0.90;;;16.40;99.90;;;;;;5008510;28;20173;-88
2023/10/28 07:35:50;;;;;;;0.90;0.90;;;16.40;99.90;;;;;;5003844;28;20210;-88
2023/10/28 07:38:17;;;;;;;1.67;0.90;;;16.40;99.90;;;;;;4994552;28;20266;-88
2023/10/28 07:40:45;;;;;;;1.20;1.10;;;16.40;99.90;;;;;;5001719;28;20542;-88
2023/10/28 07:43:12;;;;;;;1.03;0.97;;;16.40;99.90;;;;;;5013068;28;20263;-88
2023/10/28 07:45:42;;;;;;;1.30;1.10;;;16.40;99.90;;;;;;5003885;28;20729;-89
2023/10/28 07:48:09;;;;;;;1.07;0.97;;;16.50;99.90;;;;;;4992250;28;20181;-89
2023/10/28 07:50:44;;;;;;;1.10;1.00;;;16.50;99.90;;;;;;5004029;28;20169;-88
2023/10/28 07:53:11;;;;;;;1.33;0.90;;;16.60;99.90;;;;;;4992562;28;20165;-89
2023/10/28 07:55:38;;;;;;;1.10;1.00;;;16.60;99.90;;;;;;5021878;28;20176;-89
2023/10/28 07:58:03;;;;;;;1.40;1.10;;;16.60;99.90;;;;;;4990556;28;20402;-89
2023/10/28 08:00:29;;;;;;;2.40;1.00;;;16.60;99.90;;;;;;5004221;28;20210;-88
2023/10/28 08:02:55;;;;;;;1.43;1.10;;;16.60;99.90;;;;;;5011484;28;20665;-90
2023/10/28 08:05:21;;;;;;;1.30;1.00;;;16.60;99.90;;;;;;5007293;28;20579;-88
2023/10/28 08:07:48;;;;;;;1.00;0.90;;;16.50;99.90;;;;;;4996147;28;20549;-89
2023/10/28 08:10:14;;;;;;;1.17;1.07;;;16.60;99.90;;;;;;4996660;28;20165;-88
2023/10/28 08:12:41;;;;;;;1.03;0.93;;;16.60;99.90;;;;;;5006324;28;20307;-89
2023/10/28 08:15:09;;;;;;;1.10;1.00;;;16.60;99.90;;;;;;5007805;28;20211;-88
2023/10/28 08:17:35;;;;;;;2.03;1.00;;;16.60;99.90;;;;;;4993730;28;20235;-88
2023/10/28 08:20:03;;;;;;;1.60;1.00;;;16.50;99.90;;;;;;4998836;28;20266;-88
2023/10/28 08:22:30;;;;;;;1.10;0.90;;;16.60;99.90;;;;;;5005569;28;20196;-88
2023/10/28 08:24:55;;;;;;;2.13;1.00;;;16.50;99.90;;;;;;5013173;28;20204;-88
2023/10/28 08:27:21;;;;;;;1.30;1.07;;;16.60;99.90;;;;;;5002053;28;20422;-89
2023/10/28 08:29:48;;;;;;;2.10;1.10;;;16.60;99.90;;;;;;5012086;28;20174;-89
2023/10/28 08:32:17;;;;;;;2.53;1.20;;;16.60;99.90;;;;;;4999831;28;20192;-89
2023/10/28 08:34:45;;;;;;;1.83;1.30;;;16.60;99.90;;;;;;5011071;28;20286;-88
2023/10/28 08:37:13;;;;;;;4.57;1.40;;;16.60;99.90;;;;;;5005407;28;20356;-90
2023/10/28 08:39:40;;;;;;;2.37;1.30;;;16.60;99.90;;;;;;4993084;28;20175;-88
2023/10/28 08:42:06;;;;;;;3.97;1.30;;;16.60;99.90;;;;;;5006239;28;20180;-88
2023/10/28 08:44:33;;;;;;;5.30;1.13;;;16.60;99.90;;;;;;4993762;28;20244;-89
2023/10/28 08:47:06;;;;;;;1.30;1.20;;;16.60;99.90;;;;;;5006276;28;20548;-89
2023/10/28 08:49:37;;;;;;;1.57;1.10;;;16.60;99.90;;;;;;4994151;28;20184;-89
2023/10/28 08:52:06;;;;;;;2.97;1.30;;;16.60;99.90;;;;;;5018847;28;20567;-88
2023/10/28 08:54:34;;;;;;;2.97;1.20;;;16.60;99.90;;;;;;4993288;28;20178;-89
2023/10/28 08:57:00;;;;;;;3.83;1.23;;;16.60;99.90;;;;;;4997873;28;20564;-88
2023/10/28 08:59:27;;;;;;;4.43;1.27;;;16.60;99.90;;;;;;4993685;28;20399;-88
2023/10/28 09:01:57;;;;;;;3.90;1.33;;;16.60;99.90;;;;;;4995188;28;20175;-89
2023/10/28 09:04:22;;;;;;;3.47;1.13;;;16.60;99.90;;;;;;4996875;28;20459;-88
2023/10/28 09:06:52;;;;;;;1.67;1.10;;;16.70;99.90;;;;;;4992491;28;20361;-89
2023/10/28 09:09:20;;;;;;;4.40;1.43;;;16.70;99.90;;;;;;4999686;28;20175;-89
2023/10/28 09:11:47;;;;;;;1.53;1.10;;;16.70;99.90;;;;;;4991479;28;20377;-89
2023/10/28 09:14:13;;;;;;;2.37;1.30;;;16.70;99.90;;;;;;5001110;28;20229;-89
2023/10/28 09:16:41;;;;;;;1.83;1.23;;;16.70;99.90;;;;;;4995573;28;20199;-89
2023/10/28 09:19:20;;;;;;;2.03;1.30;;;16.70;99.90;;;;;;5003225;28;20161;-89
2023/10/28 09:21:51;;;;;;;1.50;1.33;;;16.70;99.90;;;;;;4993368;28;20380;-89
2023/10/28 09:24:19;;;;;;;2.03;1.30;;;16.70;99.90;;;;;;5004150;28;20441;-89
2023/10/28 09:26:46;;;;;;;4.80;1.60;;;16.70;99.90;;;;;;4995007;28;20465;-88
2023/10/28 09:29:25;;;;;;;5.57;1.63;;;16.70;99.90;;;;;;5011766;28;20180;-89
2023/10/28 09:31:51;;;;;;;7.83;2.13;;;16.80;99.90;;;;;;5015939;28;20206;-89
2023/10/28 09:34:17;;;;;;;1.83;1.50;;;16.70;99.90;;;;;;5006105;28;20544;-89
2023/10/28 09:36:44;;;;;;;7.23;1.63;;;16.80;99.90;;;;;;4977538;28;20209;-89
2023/10/28 09:39:13;;;;;;;3.23;1.60;;;16.80;99.90;;;;;;5005321;28;20455;-89
2023/10/28 09:41:39;;;;;;;3.57;1.57;;;16.80;99.90;;;;;;4993494;28;20197;-89
2023/10/28 09:44:08;;;;;;;8.23;1.70;;;16.70;99.90;;;;;;4997088;28;20172;-89
2023/10/28 09:46:36;;;;;;;3.77;1.43;;;16.80;99.90;;;;;;4993164;28;20459;-89
2023/10/28 09:49:07;;;;;;;4.83;1.83;;;16.80;99.90;;;;;;4995858;28;20206;-89
2023/10/28 09:51:36;;;;;;;4.07;1.37;;;16.70;99.90;;;;;;5009507;28;20178;-89
2023/10/28 09:54:08;;;;;;;3.23;1.70;;;16.70;99.90;;;;;;5006394;28;20442;-89
2023/10/28 09:56:36;;;;;;;3.87;1.70;;;16.80;99.90;;;;;;4993129;28;20176;-88
2023/10/28 09:59:13;;;;;;;5.43;1.60;;;16.80;99.90;;;;;;4995870;28;20176;-88
2023/10/28 10:02:17;;;;;;;5.20;1.70;;;16.80;99.90;;;;;;5008593;28;20225;-88
2023/10/28 10:04:51;;;;;;;2.47;1.43;;;16.80;99.90;;;;;;4985013;28;20194;-88
2023/10/28 10:07:17;;;;;;;3.27;1.50;;;16.80;99.90;;;;;;5010616;28;20178;-88
2023/10/28 10:09:48;;;;;;;4.13;1.97;;;16.80;99.90;;;;;;5005923;28;20164;-89
2023/10/28 10:12:15;;;;;;;2.80;1.60;;;16.80;99.90;;;;;;5011006;28;20173;-88
2023/10/28 10:14:47;;;;;;;5.00;1.80;;;16.80;99.90;;;;;;5001794;28;20646;-88
2023/10/28 10:17:31;;;;;;;4.17;1.73;;;16.80;99.90;;;;;;5007700;28;20184;-88
2023/10/28 10:19:59;;;;;;;3.87;1.87;;;16.80;99.90;;;;;;5019468;28;20169;-88
2023/10/28 10:22:29;;;;;;;4.37;1.97;;;16.80;99.90;;;;;;5007697;28;20577;-88
2023/10/28 10:24:55;;;;;;;8.47;1.90;;;16.80;99.90;;;;;;5002339;28;20225;-88
2023/10/28 10:27:40;;;;;;;2.50;1.67;;;16.80;99.90;;;;;;4977741;28;20295;-89
2023/10/28 10:30:07;;;;;;;2.40;1.50;;;16.90;99.90;;;;;;5000740;28;20172;-89
2023/10/28 10:32:50;;;;;;;2.87;1.80;;;16.90;99.90;;;;;;4997795;28;20171;-89
2023/10/28 10:35:30;;;;;;;3.50;1.90;;;16.80;99.90;;;;;;4999363;28;20207;-89
2023/10/28 10:38:06;;;;;;;3.50;1.80;;;16.80;99.90;;;;;;4995085;28;20180;-90
2023/10/28 10:40:53;;;;;;;3.57;2.00;;;16.80;99.90;;;;;;4991614;28;20176;-89
2023/10/28 10:43:20;;;;;;;5.53;1.90;;;16.90;99.90;;;;;;5008981;28;20812;-90
2023/10/28 10:45:46;;;;;;;3.07;1.80;;;16.90;99.90;;;;;;5006498;28;20258;-89
2023/10/28 10:48:13;;;;;;;3.50;1.50;;;16.90;99.90;;;;;;4994160;28;20242;-89
2023/10/28 10:50:41;;;;;;;3.20;1.80;;;16.80;99.90;;;;;;4992828;28;20170;-89
2023/10/28 10:53:07;;;;;;;5.90;1.87;;;16.90;99.90;;;;;;5022656;28;20574;-88
2023/10/28 10:55:33;;;;;;;2.20;1.60;;;16.90;99.90;;;;;;5006789;28;20193;-88
2023/10/28 10:57:59;;;;;;;3.83;1.90;;;17.00;99.90;;;;;;5019144;28;20371;-89
2023/10/28 11:00:26;;;;;;;2.60;1.80;;;17.00;99.90;;;;;;5007458;28;20204;-89
2023/10/28 11:03:00;;;;;;;1.97;1.63;;;17.00;99.90;;;;;;4998919;28;20173;-89
2023/10/28 11:05:30;;;;;;;2.50;1.47;;;17.00;99.90;;;;;;5006047;28;20518;-89
2023/10/28 11:07:57;;;;;;;2.23;1.80;;;17.00;99.90;;;;;;5016412;28;20169;-89
2023/10/28 11:10:24;;;;;;;2.63;1.40;;;17.00;99.90;;;;;;5008922;28;20176;-89
2023/10/28 11:12:50;;;;;;;2.63;1.70;;;17.00;99.90;;;;;;4999497;28;20582;-89
2023/10/28 11:15:16;;;;;;;2.47;1.50;;;17.00;99.90;;;;;;5026863;28;20173;-89
2023/10/28 11:17:42;;;;;;;3.43;1.60;;;17.00;99.90;;;;;;5005419;28;20372;-89
2023/10/28 11:20:11;;;;;;;3.93;1.80;;;17.00;99.90;;;;;;4991852;28;20169;-90
2023/10/28 11:22:37;;;;;;;4.07;1.50;;;17.00;99.90;;;;;;5006180;28;20169;-90
2023/10/28 11:25:04;;;;;;;3.67;1.77;;;17.10;99.90;;;;;;5009561;28;20227;-87
2023/10/28 11:27:31;;;;;;;2.37;1.70;;;17.10;99.90;;;;;;5006619;28;20169;-89
2023/10/28 11:29:58;;;;;;;2.23;1.60;;;17.10;99.90;;;;;;4990872;28;20165;-89
2023/10/28 11:32:26;;;;;;;2.60;1.40;;;17.10;99.90;;;;;;4996902;28;20181;-89
2023/10/28 11:34:54;;;;;;;2.47;1.60;;;17.10;99.90;;;;;;5008366;28;20185;-90
2023/10/28 11:37:20;;;;;;;2.10;1.60;;;17.10;99.90;;;;;;5003225;28;20463;-89
2023/10/28 11:39:47;;;;;;;2.47;1.50;;;17.10;99.90;;;;;;5005730;28;20234;-89
2023/10/28 11:42:15;;;;;;;2.10;1.40;;;17.10;99.90;;;;;;5005865;28;20165;-89
2023/10/28 11:44:49;;;;;;;2.50;1.40;;;17.10;99.90;;;;;;4998022;28;20174;-88
2023/10/28 11:47:16;;;;;;;2.30;1.60;;;17.20;99.90;;;;;;4996867;28;20172;-89
2023/10/28 11:49:41;;;;;;;1.97;1.40;;;17.20;99.90;;;;;;5001002;28;20169;-89
2023/10/28 11:52:09;;;;;;;3.10;1.57;;;17.20;99.90;;;;;;5007134;28;20183;-88
2023/10/28 11:54:35;;;;;;;2.47;1.60;;;17.20;99.90;;;;;;4998619;28;20180;-89
2023/10/28 11:57:01;;;;;;;3.53;1.70;;;17.20;99.90;;;;;;5007931;28;20450;-89
2023/10/28 11:59:27;;;;;;;2.63;1.50;;;17.20;99.90;;;;;;4995746;28;20173;-89
2023/10/28 12:01:53;;;;;;;2.20;1.40;;;17.20;99.90;;;;;;5008360;28;20168;-89
2023/10/28 12:04:21;;;;;;;1.93;1.60;;;17.20;99.90;;;;;;5002936;28;20170;-89
2023/10/28 12:06:47;;;;;;;3.40;1.50;;;17.20;99.90;;;;;;4990670;28;20201;-89
2023/10/28 12:09:16;;;;;;;2.33;1.50;;;17.20;99.90;;;;;;5004018;28;20324;-89
2023/10/28 12:11:41;;;;;;;2.23;1.37;;;17.30;99.90;;;;;;4992323;28;20193;-89
2023/10/28 12:14:08;;;;;;;2.37;1.30;;;17.30;99.90;;;;;;4995075;28;20173;-88
2023/10/28 12:16:43;;;;;;;2.07;1.50;;;17.30;99.90;;;;;;5009839;28;20687;-88
2023/10/28 12:19:08;;;;;;;2.70;1.23;;;17.30;99.90;;;;;;4997042;28;20172;-88
2023/10/28 12:21:35;;;;;;;2.23;1.43;;;17.30;99.90;;;;;;5026759;28;20207;-87
2023/10/28 12:24:05;;;;;;;2.00;1.30;;;17.30;99.90;;;;;;5001758;28;20424;-88
2023/10/28 12:26:31;;;;;;;2.40;1.40;;;17.30;99.90;;;;;;5005086;28;20204;-87
2023/10/28 12:28:57;;;;;;;2.80;1.60;;;17.30;99.90;;;;;;5002819;28;20547;-88
2023/10/28 12:31:23;;;;;;;3.37;1.50;;;17.30;99.90;;;;;;5004092;28;20247;-88
2023/10/28 12:33:50;;;;;;;2.00;1.60;;;17.30;99.90;;;;;;5004336;28;20175;-87
2023/10/28 12:36:19;;;;;;;1.90;1.40;;;17.30;99.90;;;;;;5009353;28;20185;-88
2023/10/28 12:38:47;;;;;;;2.03;1.30;;;17.30;99.90;;;;;;5006917;28;20418;-88
2023/10/28 12:41:13;;;;;;;3.50;1.40;;;17.30;99.90;;;;;;5000297;28;20170;-88
2023/10/28 12:43:39;;;;;;;2.30;1.40;;;17.30;99.90;;;;;;4993458;28;20474;-88
2023/10/28 12:46:06;;;;;;;2.80;1.43;;;17.30;99.90;;;;;;5001903;28;20417;-88
2023/10/28 12:48:32;;;;;;;2.27;1.37;;;17.30;99.90;;;;;;5000294;28;20252;-88